Time;durP1;ratioP1;P1;durP2;ratioP2;P2;SDS_P1;SDS_P2;PMS_P1;PMS_P2;Temp;Humidity;BMP_temperature;BMP_pressure;BME280_temperature;BME280_humidity;BME280_pressure;Samples;Min_cycle;Max_cycle;Signal;HPM_P1;HPM_P2
2022/05/26 00:01:37;;;;;;;41.40;21.50;;;;;;;19.07;87.10;95103.25;5051789;28;20217;-81
2022/05/26 00:04:03;;;;;;;35.97;20.73;;;;;;;18.94;88.14;95111.72;5051424;28;20258;-81
2022/05/26 00:06:29;;;;;;;46.25;22.05;;;;;;;18.96;88.21;95096.25;5051634;28;20174;-81
2022/05/26 00:08:56;;;;;;;41.67;21.13;;;;;;;18.92;88.28;95093.31;5051549;28;20175;-81
2022/05/26 00:11:31;;;;;;;35.97;20.98;;;;;;;18.83;88.69;95084.97;5052006;28;20190;-81
2022/05/26 00:14:01;;;;;;;40.58;21.15;;;;;;;18.46;88.99;95036.13;5030180;28;20171;-81
2022/05/26 00:16:27;;;;;;;36.25;19.02;;;;;;;18.75;88.59;95087.31;5051384;28;20252;-81
2022/05/26 00:18:52;;;;;;;36.55;20.55;;;;;;;18.77;88.92;95101.97;5051527;28;20174;-81
2022/05/26 00:21:19;;;;;;;41.83;20.55;;;;;;;18.75;88.67;95101.47;5051572;28;20175;-81
2022/05/26 00:23:44;;;;;;;37.70;20.38;;;;;;;18.76;88.47;95100.41;5051306;28;20214;-81
2022/05/26 00:26:10;;;;;;;34.95;19.73;;;;;;;18.69;88.62;95090.97;5051687;28;20180;-81
2022/05/26 00:28:35;;;;;;;35.08;19.48;;;;;;;18.64;88.86;95080.28;5051670;28;20167;-81
2022/05/26 00:31:01;;;;;;;38.65;19.98;;;;;;;18.60;89.36;95079.19;5051544;28;20210;-81
2022/05/26 00:33:27;;;;;;;36.40;20.40;;;;;;;18.64;89.11;95088.28;5051456;28;20190;-81
2022/05/26 00:35:52;;;;;;;38.00;21.55;;;;;;;18.58;89.48;95078.66;5051270;28;20252;-81
2022/05/26 00:38:18;;;;;;;41.15;22.13;;;;;;;18.42;89.06;95057.16;5051329;28;20183;-81
2022/05/26 00:40:45;;;;;;;38.97;22.20;;;;;;;18.57;89.06;95087.72;5051220;28;20224;-81
2022/05/26 00:43:11;;;;;;;40.08;21.50;;;;;;;18.54;88.99;95093.50;5051273;28;20660;-81
2022/05/26 00:46:01;;;;;;;40.88;18.80;;;;;;;18.58;88.91;95086.66;5051388;28;20677;-81
2022/05/26 00:48:36;;;;;;;39.03;20.60;;;;;;;18.22;88.95;95051.66;5042126;28;20183;-81
2022/05/26 00:51:03;;;;;;;36.63;19.70;;;;;;;18.51;88.79;95088.69;5047339;28;20675;-81
2022/05/26 00:53:31;;;;;;;36.58;20.45;;;;;;;18.52;88.70;95088.41;5051373;28;20172;-81
2022/05/26 00:56:22;;;;;;;36.70;20.83;;;;;;;18.41;89.08;95084.09;5051355;28;20199;-81
2022/05/26 00:58:52;;;;;;;37.13;20.05;;;;;;;18.25;89.64;95083.13;5045182;28;20171;-81
2022/05/26 01:01:18;;;;;;;37.05;20.27;;;;;;;18.23;90.02;95073.78;5051333;28;20179;-81
2022/05/26 01:03:57;;;;;;;38.33;21.38;;;;;;;18.22;89.73;95069.50;5051518;28;20255;-81
2022/05/26 01:06:36;;;;;;;38.72;21.63;;;;;;;18.35;89.50;95099.22;5051241;28;20242;-81
2022/05/26 01:09:05;;;;;;;41.60;21.73;;;;;;;18.04;90.52;95105.31;5051583;28;20175;-81
2022/05/26 01:11:34;;;;;;;37.13;20.58;;;;;;;18.09;91.03;95106.16;5051198;28;20182;-81
2022/05/26 01:14:23;;;;;;;38.03;21.63;;;;;;;18.00;91.05;95088.19;5051207;28;20182;-81
2022/05/26 01:17:08;;;;;;;45.08;21.92;;;;;;;18.21;90.55;95099.88;5051120;28;20304;-81
2022/05/26 01:19:53;;;;;;;41.30;22.25;;;;;;;18.25;90.17;95120.44;5051312;28;20190;-81
2022/05/26 01:22:45;;;;;;;42.20;21.10;;;;;;;18.15;90.12;95107.03;5043096;28;20708;-81
2022/05/26 01:25:19;;;;;;;46.42;21.88;;;;;;;18.20;89.62;95100.94;5053426;28;20254;-81
2022/05/26 01:27:59;;;;;;;46.28;22.95;;;;;;;18.21;89.49;95103.34;5054642;28;20170;-81
2022/05/26 01:30:45;;;;;;;37.47;21.88;;;;;;;18.23;89.04;95095.91;5054630;28;20722;-81
2022/05/26 01:33:28;;;;;;;32.72;19.77;;;;;;;18.27;89.07;95113.00;5047586;28;20163;-82
2022/05/26 01:35:59;;;;;;;41.95;21.58;;;;;;;18.23;89.21;95119.09;5054352;28;20191;-82
2022/05/26 01:38:27;;;;;;;37.28;21.33;;;;;;;18.22;89.11;95125.47;5037531;28;20175;-82
2022/05/26 01:41:25;;;;;;;42.00;20.88;;;;;;;18.20;88.75;95124.91;5054411;28;20258;-82
2022/05/26 01:44:35;;;;;;;40.85;21.27;;;;;;;18.14;89.44;95117.94;5046533;28;20250;-82
2022/05/26 01:47:09;;;;;;;46.25;24.40;;;;;;;18.08;89.29;95103.75;5051055;28;20191;-82
2022/05/26 01:49:51;;;;;;;44.42;22.55;;;;;;;17.82;89.79;95077.88;5036348;28;20224;-81
2022/05/26 01:52:40;;;;;;;46.10;26.63;;;;;;;18.12;89.49;95115.50;5036216;28;20266;-81
2022/05/26 01:55:18;;;;;;;47.78;27.40;;;;;;;18.03;89.66;95096.50;5053950;28;20177;-81
2022/05/26 01:58:00;;;;;;;41.53;21.83;;;;;;;18.06;88.96;95100.53;5054092;28;20202;-81
2022/05/26 02:00:25;;;;;;;36.88;22.25;;;;;;;17.92;90.29;95107.31;5054193;28;20197;-81
2022/05/26 02:03:15;;;;;;;40.53;22.65;;;;;;;17.73;91.38;95104.97;5054135;28;20199;-81
2022/05/26 02:05:48;;;;;;;38.70;22.30;;;;;;;17.71;91.70;95099.09;5054337;28;20159;-81
2022/05/26 02:08:22;;;;;;;36.67;21.00;;;;;;;17.78;91.70;95104.22;5053783;28;20228;-81
2022/05/26 02:11:16;;;;;;;39.17;20.75;;;;;;;17.85;91.29;95104.03;5053748;28;20256;-81
2022/05/26 02:13:58;;;;;;;37.78;21.60;;;;;;;17.88;90.64;95104.34;5050500;28;20187;-81
2022/05/26 02:16:51;;;;;;;35.92;20.17;;;;;;;17.92;90.59;95099.31;5053609;28;20575;-81
2022/05/26 02:19:28;;;;;;;38.10;22.85;;;;;;;17.92;90.38;95097.44;5027607;28;20247;-82
2022/05/26 02:22:20;;;;;;;36.00;21.48;;;;;;;17.99;89.90;95115.91;5035714;28;20317;-82
2022/05/26 02:25:06;;;;;;;39.13;22.15;;;;;;;17.99;89.83;95110.56;5045896;28;20692;-81
2022/05/26 02:27:33;;;;;;;38.13;21.23;;;;;;;17.86;89.76;95095.00;5053821;28;20178;-81
2022/05/26 02:30:01;;;;;;;42.33;20.80;;;;;;;17.94;89.67;95097.22;5044815;28;20182;-81
2022/05/26 02:32:48;;;;;;;38.83;20.48;;;;;;;18.01;89.75;95114.59;5053611;28;20551;-81
2022/05/26 02:35:22;;;;;;;36.72;21.65;;;;;;;18.06;90.03;95113.88;5035425;28;20179;-81
2022/05/26 02:37:52;;;;;;;37.05;20.70;;;;;;;17.99;89.83;95108.72;5035215;28;20175;-82
2022/05/26 02:40:17;;;;;;;43.30;22.48;;;;;;;17.87;90.11;95115.25;5053218;28;20231;-81
2022/05/26 02:42:49;;;;;;;53.92;28.58;;;;;;;17.75;90.44;95103.91;5053232;28;20249;-82
2022/05/26 02:45:38;;;;;;;52.10;29.92;;;;;;;17.24;90.50;95047.38;5053052;28;20167;-81
2022/05/26 02:48:34;;;;;;;44.22;24.13;;;;;;;17.14;93.92;95109.25;5031622;28;20194;-81
2022/05/26 02:51:12;;;;;;;38.00;21.58;;;;;;;17.22;94.71;95110.66;5052991;28;20607;-81
2022/05/26 02:53:47;;;;;;;46.83;24.80;;;;;;;17.25;94.37;95123.50;5053034;28;20171;-81
2022/05/26 02:56:23;;;;;;;55.75;27.42;;;;;;;17.36;93.86;95117.25;5052803;28;20194;-81
2022/05/26 02:59:05;;;;;;;47.47;25.25;;;;;;;17.29;93.72;95100.69;5052449;28;20544;-82
2022/05/26 03:01:40;;;;;;;41.50;23.30;;;;;;;17.28;92.88;95085.75;5034498;28;20563;-85
2022/05/26 03:04:12;;;;;;;42.65;24.90;;;;;;;17.36;92.34;95074.69;5034640;28;20194;-85
2022/05/26 03:06:47;;;;;;;40.85;22.85;;;;;;;17.59;92.09;95108.22;5034462;28;20287;-86
2022/05/26 03:09:13;;;;;;;49.75;29.98;;;;;;;17.24;92.19;95052.69;5052270;28;20649;-85
2022/05/26 03:11:58;;;;;;;45.67;24.10;;;;;;;17.54;91.90;95093.00;5052426;28;20177;-84
2022/05/26 03:14:24;;;;;;;44.58;24.15;;;;;;;17.87;90.87;95144.56;5051920;28;20178;-84
2022/05/26 03:16:50;;;;;;;42.42;22.85;;;;;;;17.93;90.66;95146.22;5048009;28;20240;-84
2022/05/26 03:19:16;;;;;;;49.92;28.77;;;;;;;17.51;91.83;95077.53;5034129;28;20170;-84
2022/05/26 03:21:42;;;;;;;44.67;24.55;;;;;;;17.99;91.27;95148.66;5034341;28;20167;-84
2022/05/26 03:24:08;;;;;;;50.85;25.45;;;;;;;17.72;90.97;95099.91;5052164;28;20219;-84
2022/05/26 03:26:34;;;;;;;48.30;25.05;;;;;;;17.76;90.77;95101.00;5034070;28;20178;-84
2022/05/26 03:28:59;;;;;;;52.08;30.23;;;;;;;18.09;90.53;95142.66;5034264;28;20201;-84
2022/05/26 03:31:25;;;;;;;50.03;27.65;;;;;;;17.94;90.53;95126.50;5052009;28;20173;-84
2022/05/26 03:42:05;;;;;;;53.97;26.83;;;;;;;18.21;89.22;95156.66;5052270;28;20614;-89
2022/05/26 03:44:33;;;;;;;46.30;27.05;;;;;;;18.04;89.37;95135.44;5052905;28;20213;-88
2022/05/26 03:46:59;;;;;;;57.88;31.20;;;;;;;17.57;90.79;95110.31;5051572;28;20197;-89
2022/05/26 03:49:24;;;;;;;58.55;32.03;;;;;;;17.43;91.03;95075.31;5051314;28;20223;-89
2022/05/26 03:51:50;;;;;;;52.28;31.23;;;;;;;18.10;90.79;95173.59;5051919;28;20171;-89
2022/05/26 03:54:15;;;;;;;53.75;31.35;;;;;;;17.90;90.26;95128.06;5051823;28;20175;-84
2022/05/26 03:56:40;;;;;;;56.28;32.35;;;;;;;18.27;90.19;95187.63;5033679;28;20692;-84
2022/05/26 03:59:06;;;;;;;47.33;28.85;;;;;;;18.36;89.66;95186.13;5051558;28;20171;-84
2022/05/26 04:01:32;;;;;;;53.33;29.15;;;;;;;18.07;89.22;95139.47;5051581;28;20217;-84
2022/05/26 04:03:57;;;;;;;70.53;29.52;;;;;;;18.40;89.40;95184.59;5051569;28;20550;-84
2022/05/26 04:06:24;;;;;;;73.63;36.88;;;;;;;18.47;89.49;95187.03;5051565;28;20174;-84
2022/05/26 04:08:49;;;;;;;55.05;30.75;;;;;;;18.29;89.13;95142.88;5033533;28;20209;-84
2022/05/26 04:11:15;;;;;;;80.13;40.30;;;;;;;18.45;89.36;95159.81;5033584;28;20179;-84
2022/05/26 04:13:40;;;;;;;55.80;34.25;;;;;;;18.61;88.78;95160.78;5051609;28;20165;-84
2022/05/26 04:16:07;;;;;;;58.30;28.75;;;;;;;18.75;88.34;95170.81;5051513;28;20194;-84
2022/05/26 04:18:33;;;;;;;58.85;31.08;;;;;;;18.68;87.65;95146.19;5033345;28;20997;-84
2022/05/26 04:21:07;;;;;;;58.72;31.30;;;;;;;19.08;87.49;95192.94;5049209;28;20183;-84
2022/05/26 04:23:33;;;;;;;57.15;34.35;;;;;;;19.18;87.13;95199.19;5051505;28;20225;-84
2022/05/26 04:25:58;;;;;;;79.78;40.08;;;;;;;19.26;87.22;95194.41;5033717;28;20171;-84
2022/05/26 04:28:23;;;;;;;75.72;41.70;;;;;;;19.35;87.10;95190.22;5051144;28;20187;-85
2022/05/26 04:30:49;;;;;;;56.72;31.77;;;;;;;19.55;85.99;95209.84;5051526;28;20540;-85
2022/05/26 04:33:14;;;;;;;69.03;33.05;;;;;;;19.67;85.93;95198.97;5051359;28;20254;-84
2022/05/26 04:35:39;;;;;;;63.97;30.77;;;;;;;19.70;85.62;95195.00;5045329;28;20265;-84
2022/05/26 04:38:05;;;;;;;64.30;34.22;;;;;;;19.90;85.30;95190.53;5051284;28;20167;-84
2022/05/26 04:40:30;;;;;;;58.25;32.40;;;;;;;19.73;84.32;95146.38;5048254;28;20225;-84
2022/05/26 04:42:56;;;;;;;51.15;26.80;;;;;;;19.98;83.17;95168.66;5046056;28;20224;-85
2022/05/26 04:45:21;;;;;;;57.75;30.55;;;;;;;20.39;83.10;95194.78;5051369;28;20163;-84
2022/05/26 04:47:47;;;;;;;49.30;25.02;;;;;;;20.30;82.17;95155.13;5051442;28;20171;-84
2022/05/26 04:50:12;;;;;;;52.65;25.83;;;;;;;20.86;81.93;95218.66;5033479;28;20163;-82
2022/05/26 04:52:38;;;;;;;57.95;26.75;;;;;;;20.78;80.08;95200.44;5047331;28;20553;-81
2022/05/26 04:55:05;;;;;;;52.42;25.25;;;;;;;20.76;81.41;95171.28;5042224;28;20180;-81
2022/05/26 04:57:31;;;;;;;49.38;23.95;;;;;;;21.13;79.72;95172.88;5043937;28;20603;-81
2022/05/26 04:59:56;;;;;;;40.03;21.50;;;;;;;21.69;77.99;95209.28;5042297;28;20266;-82
2022/05/26 05:02:23;;;;;;;43.20;22.42;;;;;;;21.86;75.48;95206.31;5050056;28;20626;-81
2022/05/26 05:04:49;;;;;;;41.10;20.58;;;;;;;22.35;73.99;95217.13;5049481;28;20266;-82
2022/05/26 05:07:17;;;;;;;40.28;21.23;;;;;;;22.88;72.61;95212.84;5054957;28;20175;-82
2022/05/26 05:09:43;;;;;;;39.08;19.27;;;;;;;23.22;70.75;95190.56;5054946;28;20177;-82
2022/05/26 05:12:12;;;;;;;34.35;20.10;;;;;;;24.02;68.58;95231.22;5054861;28;20262;-82
2022/05/26 05:14:41;;;;;;;34.13;17.98;;;;;;;24.71;66.54;95232.56;5054851;28;20642;-81
2022/05/26 05:17:06;;;;;;;37.28;19.55;;;;;;;25.36;64.60;95238.88;5054718;28;20215;-82
2022/05/26 05:19:32;;;;;;;31.10;17.30;;;;;;;25.80;61.42;95238.44;5054896;28;20258;-82
2022/05/26 05:22:03;;;;;;;31.95;18.48;;;;;;;26.28;60.57;95238.94;5061766;28;20186;-82
2022/05/26 05:24:38;;;;;;;36.05;16.65;;;;;;;26.81;57.88;95246.47;5054589;28;20223;-82
2022/05/26 05:27:23;;;;;;;34.00;17.63;;;;;;;27.39;56.13;95243.81;5054693;28;20555;-82
2022/05/26 05:29:52;;;;;;;29.50;16.55;;;;;;;27.72;53.66;95235.47;5054752;28;20175;-82
2022/05/26 05:32:24;;;;;;;45.53;17.30;;;;;;;27.78;53.63;95237.72;5054778;28;20543;-82
2022/05/26 05:35:00;;;;;;;26.13;15.80;;;;;;;27.91;53.90;95243.38;5054514;28;20206;-82
2022/05/26 05:37:26;;;;;;;34.15;17.25;;;;;;;28.02;53.93;95226.53;5054529;28;20199;-82
2022/05/26 05:39:51;;;;;;;31.20;16.85;;;;;;;28.16;53.53;95229.19;5054202;28;20542;-82
2022/05/26 05:42:17;;;;;;;33.70;17.45;;;;;;;28.29;53.17;95228.28;5054418;28;20171;-83
2022/05/26 05:44:43;;;;;;;29.65;16.27;;;;;;;28.17;53.42;95219.16;5054183;28;20167;-83
2022/05/26 05:47:08;;;;;;;29.67;15.95;;;;;;;27.92;54.02;95242.28;5054166;28;20194;-82
2022/05/26 05:49:34;;;;;;;26.95;15.38;;;;;;;27.58;56.21;95267.22;5054258;28;20661;-83
2022/05/26 05:52:10;;;;;;;32.70;15.32;;;;;;;27.10;57.57;95251.53;5054156;28;20182;-82
2022/05/26 05:54:36;;;;;;;29.35;14.70;;;;;;;26.75;58.15;95277.41;5045402;28;20223;-82
2022/05/26 05:57:02;;;;;;;31.42;14.98;;;;;;;26.16;59.26;95248.59;5054084;28;20268;-82
2022/05/26 05:59:28;;;;;;;37.47;17.17;;;;;;;25.92;60.77;95273.84;5035996;28;20262;-83
2022/05/26 06:01:54;;;;;;;30.00;15.85;;;;;;;25.40;60.37;95244.50;5053648;28;20171;-82
2022/05/26 06:04:19;;;;;;;37.33;16.10;;;;;;;24.96;62.66;95266.47;5053864;28;20682;-82
2022/05/26 06:06:45;;;;;;;30.55;16.67;;;;;;;24.72;64.34;95279.97;5053913;28;20551;-82
2022/05/26 06:09:18;;;;;;;27.58;16.08;;;;;;;24.51;66.30;95273.22;5036198;28;20183;-82
2022/05/26 06:11:48;;;;;;;29.40;15.52;;;;;;;24.14;64.96;95258.53;5044691;28;20608;-82
2022/05/26 06:14:13;;;;;;;38.22;17.42;;;;;;;24.15;66.34;95272.78;5046994;28;20173;-82
2022/05/26 06:16:39;;;;;;;33.13;17.42;;;;;;;23.78;67.31;95227.72;5053467;28;20187;-82
2022/05/26 06:19:04;;;;;;;32.42;15.30;;;;;;;23.89;65.82;95286.50;5053789;28;20167;-86
2022/05/26 06:21:31;;;;;;;31.20;16.27;;;;;;;23.85;67.58;95284.66;5060037;28;20182;-82
2022/05/26 06:23:57;;;;;;;37.67;15.90;;;;;;;23.77;65.85;95267.25;5035720;28;20306;-82
2022/05/26 06:26:27;;;;;;;39.13;17.02;;;;;;;23.81;65.96;95280.91;5050829;28;20250;-82
2022/05/26 06:31:37;;;;;;;34.47;15.15;;;;;;;23.72;67.14;95261.09;5045848;28;20198;-86
2022/05/26 06:39:31;;;;;;;28.38;14.40;;;;;;;24.12;66.35;95306.47;5055386;28;20178;-82
2022/05/26 06:42:05;;;;;;;28.23;15.65;;;;;;;24.01;67.23;95259.22;5053087;28;20167;-82
2022/05/26 06:44:32;;;;;;;27.10;13.95;;;;;;;24.42;65.11;95303.47;5052858;28;20649;-81
2022/05/26 06:46:57;;;;;;;32.75;14.38;;;;;;;24.80;66.96;95306.25;5053111;28;20159;-81
2022/05/26 06:49:22;;;;;;;29.73;13.48;;;;;;;25.40;65.94;95301.94;5053431;28;20235;-80
2022/05/26 06:51:48;;;;;;;33.17;13.20;;;;;;;26.07;64.44;95299.75;5060767;28;20175;-79
2022/05/26 06:54:13;;;;;;;27.55;12.90;;;;;;;26.47;61.68;95302.81;5050604;28;20233;-83
2022/05/26 06:56:39;;;;;;;28.08;13.05;;;;;;;26.73;58.69;95308.50;5034881;28;20203;-81
2022/05/26 06:59:04;;;;;;;38.80;12.95;;;;;;;26.99;58.63;95315.81;5058820;28;20179;-81
2022/05/26 07:01:30;;;;;;;27.98;11.70;;;;;;;27.38;58.01;95317.16;5054027;28;20242;-80
2022/05/26 07:03:55;;;;;;;23.60;10.60;;;;;;;27.74;56.07;95322.56;5057725;28;20249;-80
2022/05/26 07:06:24;;;;;;;23.00;10.93;;;;;;;28.21;56.15;95310.28;5052217;28;20182;-80
2022/05/26 07:08:50;;;;;;;24.38;8.18;;;;;;;28.79;52.31;95326.38;5051092;28;20558;-80
2022/05/26 07:11:17;;;;;;;16.38;7.97;;;;;;;29.09;48.93;95304.88;5049388;28;20204;-79
2022/05/26 07:13:42;;;;;;;8.90;6.00;;;;;;;29.38;47.67;95323.31;5051902;28;20238;-80
2022/05/26 07:16:10;;;;;;;21.52;6.40;;;;;;;29.66;45.78;95308.31;5049035;28;20210;-80
2022/05/26 07:18:36;;;;;;;16.40;6.35;;;;;;;29.94;45.90;95316.91;5043225;28;20171;-80
2022/05/26 07:21:04;;;;;;;15.80;5.88;;;;;;;29.95;46.15;95304.94;5055243;28;20183;-84
2022/05/26 07:23:32;;;;;;;14.60;5.82;;;;;;;29.70;40.70;95316.59;5048588;28;20223;-79
2022/05/26 07:25:58;;;;;;;10.32;4.07;;;;;;;29.36;40.60;95298.41;5049724;28;20175;-81
2022/05/26 07:28:24;;;;;;;9.45;4.15;;;;;;;29.07;42.44;95305.19;5034589;28;20244;-82
2022/05/26 07:30:52;;;;;;;14.98;4.63;;;;;;;29.21;43.78;95291.50;5051662;28;20171;-82
2022/05/26 07:33:18;;;;;;;11.25;3.50;;;;;;;29.42;42.38;95303.34;5052138;28;20167;-80
2022/05/26 07:35:44;;;;;;;12.85;5.47;;;;;;;29.87;44.60;95303.00;5052132;28;20206;-83
2022/05/26 07:43:39;;;;;;;17.98;4.53;;;;;;;30.65;39.91;95315.28;5052430;28;20271;-81
2022/05/26 07:46:04;;;;;;;11.95;4.00;;;;;;;30.33;39.82;95285.97;5051905;28;20198;-80
2022/05/26 07:48:30;;;;;;;13.05;4.57;;;;;;;30.68;40.58;95303.78;5052162;28;20585;-80
2022/05/26 07:50:55;;;;;;;17.23;6.07;;;;;;;30.86;40.52;95320.00;5065083;28;20203;-78
2022/05/26 07:53:21;;;;;;;9.45;4.22;;;;;;;30.64;40.09;95318.34;5051260;28;20175;-77
2022/05/26 07:55:46;;;;;;;10.38;3.63;;;;;;;30.79;42.48;95301.47;5048190;28;20205;-77
2022/05/26 07:58:12;;;;;;;15.90;5.70;;;;;;;31.16;41.17;95309.94;5050467;28;20178;-77
2022/05/26 08:00:40;;;;;;;15.60;4.07;;;;;;;31.53;41.72;95317.19;5032823;28;20186;-78
2022/05/26 08:03:05;;;;;;;8.77;3.45;;;;;;;31.97;38.71;95320.38;5032693;28;20680;-78
2022/05/26 08:05:32;;;;;;;13.18;4.10;;;;;;;31.99;37.64;95312.66;5049892;28;20177;-77
2022/05/26 08:07:58;;;;;;;10.43;3.60;;;;;;;32.32;38.07;95326.28;5050332;28;20179;-76
2022/05/26 08:10:23;;;;;;;18.98;4.38;;;;;;;32.48;37.35;95322.56;5033463;28;20618;-77
2022/05/26 08:12:49;;;;;;;9.45;3.28;;;;;;;32.11;37.48;95309.97;5033312;28;20174;-77
2022/05/26 08:15:14;;;;;;;13.13;4.35;;;;;;;32.18;37.86;95323.84;5050806;28;20167;-77
2022/05/26 08:17:40;;;;;;;13.43;3.53;;;;;;;32.17;38.09;95316.84;5033046;28;20215;-77
2022/05/26 08:20:07;;;;;;;13.07;3.70;;;;;;;31.96;38.83;95329.66;5066398;28;20817;-77
2022/05/26 08:22:32;;;;;;;12.32;3.58;;;;;;;31.92;36.98;95307.75;5052741;28;20626;-77
2022/05/26 08:24:58;;;;;;;16.52;4.82;;;;;;;31.63;37.38;95332.38;5042909;28;20707;-77
2022/05/26 08:27:25;;;;;;;13.52;4.97;;;;;;;31.57;38.28;95323.56;5055562;28;20253;-77
2022/05/26 08:29:52;;;;;;;10.88;3.92;;;;;;;31.38;37.48;95337.66;5058413;28;20190;-77
2022/05/26 08:32:19;;;;;;;7.95;3.40;;;;;;;31.31;39.91;95321.03;5050167;28;20186;-79
2022/05/26 08:34:45;;;;;;;8.88;3.55;;;;;;;31.41;37.69;95338.88;5053510;28;20175;-80
2022/05/26 08:37:20;;;;;;;13.80;2.90;;;;;;;31.40;40.64;95337.28;5037509;28;20249;-83
2022/05/26 08:39:47;;;;;;;10.93;4.75;;;;;;;31.47;39.22;95337.59;5057414;28;20216;-82
2022/05/26 08:42:34;;;;;;;14.15;4.57;;;;;;;31.43;39.92;95348.31;5051717;28;20273;-80
2022/05/26 08:45:08;;;;;;;13.25;3.50;;;;;;;31.20;38.65;95325.28;5055374;28;20248;-80
2022/05/26 08:47:45;;;;;;;6.03;3.28;;;;;;;30.99;39.27;95341.53;5053982;28;20212;-80
2022/05/26 08:50:16;;;;;;;10.25;4.15;;;;;;;30.73;41.39;95347.09;5050071;28;20182;-80
2022/05/26 08:52:41;;;;;;;10.70;3.20;;;;;;;30.57;41.20;95348.75;5036164;28;20179;-80
2022/05/26 08:55:15;;;;;;;11.00;3.20;;;;;;;30.59;40.63;95348.44;5043302;28;20190;-79
2022/05/26 08:57:44;;;;;;;14.70;4.28;;;;;;;30.47;40.54;95330.03;5052694;28;20197;-78
2022/05/26 09:00:13;;;;;;;7.55;3.25;;;;;;;30.71;41.94;95341.16;5058579;28;20233;-79
2022/05/26 09:02:39;;;;;;;6.85;3.63;;;;;;;30.75;40.79;95330.44;5054195;28;20171;-79
2022/05/26 09:05:12;;;;;;;16.58;3.85;;;;;;;30.83;43.21;95345.94;5054161;28;20187;-79
2022/05/26 09:13:12;;;;;;;11.52;3.67;;;;;;;30.42;39.54;95326.72;5053244;28;20174;-79
2022/05/26 09:15:38;;;;;;;6.70;3.00;;;;;;;30.15;41.80;95331.44;5054498;28;20228;-79
2022/05/26 09:18:15;;;;;;;10.48;4.45;;;;;;;30.29;41.71;95342.09;5054209;28;20217;-79
2022/05/26 09:20:42;;;;;;;8.13;3.13;;;;;;;30.49;40.77;95343.31;5052518;28;20174;-79
2022/05/26 09:23:08;;;;;;;16.30;3.40;;;;;;;30.68;41.24;95336.41;5048656;28;20186;-79
2022/05/26 09:25:39;;;;;;;10.50;4.03;;;;;;;30.65;41.85;95339.78;5049844;28;20186;-79
2022/05/26 09:28:09;;;;;;;13.07;3.38;;;;;;;30.81;41.29;95333.78;5054601;28;20187;-79
2022/05/26 09:30:35;;;;;;;7.63;3.28;;;;;;;30.96;40.82;95341.41;5052303;28;20174;-79
2022/05/26 09:33:01;;;;;;;6.68;2.83;;;;;;;31.09;41.20;95349.34;5047634;28;20328;-79
2022/05/26 09:35:34;;;;;;;7.53;3.50;;;;;;;31.18;41.71;95341.13;5054186;28;20178;-77
2022/05/26 09:38:02;;;;;;;8.27;2.90;;;;;;;31.29;39.83;95338.84;5054129;28;20239;-78
2022/05/26 09:40:34;;;;;;;14.50;3.67;;;;;;;31.38;42.24;95345.81;5057049;28;20669;-77
2022/05/26 09:43:24;;;;;;;12.85;3.22;;;;;;;31.29;38.64;95339.63;5054462;28;20167;-75
2022/05/26 09:46:08;;;;;;;13.63;3.30;;;;;;;31.09;40.38;95352.06;5047243;28;20175;-77
2022/05/26 09:48:36;;;;;;;15.20;3.25;;;;;;;30.80;40.20;95343.06;5053987;28;20175;-77
2022/05/26 09:51:08;;;;;;;11.70;4.10;;;;;;;30.35;39.75;95335.38;5060791;28;20629;-77
2022/05/26 09:53:53;;;;;;;9.85;3.70;;;;;;;30.07;44.82;95323.28;5055472;28;20263;-77
2022/05/26 09:56:42;;;;;;;13.45;2.97;;;;;;;30.18;42.38;95330.00;5059148;28;20182;-77
2022/05/26 09:59:25;;;;;;;12.75;3.38;;;;;;;30.18;41.23;95328.06;5058082;28;20206;-77
2022/05/26 10:01:59;;;;;;;16.52;3.83;;;;;;;30.02;39.62;95313.38;5053885;28;20174;-77
2022/05/26 10:04:42;;;;;;;8.20;3.45;;;;;;;29.79;42.64;95310.03;5054124;28;20204;-77
2022/05/26 10:07:35;;;;;;;6.95;3.47;;;;;;;29.97;40.15;95319.00;5053669;28;20163;-77
2022/05/26 10:10:03;;;;;;;7.63;3.30;;;;;;;30.08;42.17;95333.03;5053823;28;20975;-78
2022/05/26 10:12:55;;;;;;;10.73;3.45;;;;;;;30.00;40.29;95329.22;5052359;28;20179;-80
2022/05/26 10:15:39;;;;;;;26.23;4.20;;;;;;;29.92;42.61;95335.44;5017055;28;20190;-81
2022/05/26 10:18:42;;;;;;;12.60;2.92;;;;;;;30.01;41.31;95325.38;5059428;28;20545;-80
2022/05/26 10:21:19;;;;;;;9.38;2.38;;;;;;;29.99;38.49;95333.06;5052883;28;20178;-79
2022/05/26 10:24:02;;;;;;;7.95;2.55;;;;;;;29.97;36.91;95332.56;5053450;28;20234;-79
2022/05/26 10:26:51;;;;;;;7.57;2.20;;;;;;;30.03;36.17;95334.00;5053481;28;20179;-79
2022/05/26 10:29:25;;;;;;;10.18;2.20;;;;;;;30.05;38.24;95331.75;5053339;28;20171;-80
2022/05/26 10:32:11;;;;;;;26.90;3.35;;;;;;;30.03;35.16;95325.84;5053318;28;20166;-81
2022/05/26 10:34:49;;;;;;;13.65;2.28;;;;;;;30.12;36.98;95331.25;5057752;28;20190;-79
2022/05/26 10:37:20;;;;;;;8.75;2.63;;;;;;;30.21;38.50;95327.41;5035111;28;20210;-79
2022/05/26 10:40:20;;;;;;;26.55;3.55;;;;;;;30.20;35.68;95331.25;5053516;28;20971;-78
2022/05/26 10:43:10;;;;;;;8.30;2.97;;;;;;;30.12;34.03;95331.25;5044508;28;20171;-79
2022/05/26 10:45:45;;;;;;;6.57;2.65;;;;;;;30.05;34.58;95334.47;5035085;28;20205;-81
2022/05/26 10:48:28;;;;;;;6.03;2.60;;;;;;;30.01;35.62;95323.44;5053006;28;20198;-82
2022/05/26 10:51:10;;;;;;;6.50;2.45;;;;;;;29.78;35.67;95303.00;5049679;28;20620;-83
2022/05/26 10:53:58;;;;;;;7.07;2.70;;;;;;;29.53;35.99;95280.19;5036497;28;20246;-82
2022/05/26 10:56:36;;;;;;;6.70;2.80;;;;;;;29.70;37.51;95309.25;5052508;28;20191;-83
2022/05/26 10:59:30;;;;;;;7.68;2.60;;;;;;;29.32;37.97;95271.06;5045659;28;20190;-84
2022/05/26 11:02:00;;;;;;;8.02;3.33;;;;;;;29.42;39.52;95306.06;5050044;28;20268;-84
2022/05/26 11:04:40;;;;;;;7.63;3.05;;;;;;;29.43;41.15;95304.13;5034922;28;20195;-84
2022/05/26 11:07:12;;;;;;;17.63;3.75;;;;;;;29.47;41.32;95305.91;5052698;28;20654;-83
2022/05/26 11:09:47;;;;;;;10.05;3.28;;;;;;;29.45;40.25;95308.16;5044373;28;20171;-83
2022/05/26 11:12:26;;;;;;;11.02;3.40;;;;;;;29.10;40.64;95268.50;5052649;28;20171;-84
2022/05/26 11:17:42;;;;;;;7.75;2.65;;;;;;;29.14;38.40;95300.13;5052768;28;20256;-83
2022/05/26 11:20:12;;;;;;;9.25;4.18;;;;;;;29.02;38.79;95301.84;5034598;28;20179;-84
2022/05/26 11:22:41;;;;;;;11.93;3.60;;;;;;;28.83;38.50;95294.78;5052153;28;20163;-84
2022/05/26 11:25:07;;;;;;;9.98;2.70;;;;;;;28.67;39.51;95252.94;5052317;28;20761;-83
2022/05/26 11:27:40;;;;;;;10.23;3.95;;;;;;;28.99;40.27;95305.97;5034417;28;20174;-84
2022/05/26 11:36:07;;;;;;;9.70;3.28;;;;;;;29.02;40.51;95288.28;5044392;28;20177;-84
2022/05/26 11:38:38;;;;;;;8.45;3.17;;;;;;;29.19;38.86;95267.41;5052239;28;20562;-84
2022/05/26 11:41:07;;;;;;;7.10;3.30;;;;;;;29.32;39.80;95268.34;5027345;28;20174;-85
2022/05/26 11:44:00;;;;;;;9.30;3.53;;;;;;;29.53;39.00;95274.78;5051993;28;20563;-84
2022/05/26 11:46:56;;;;;;;7.75;2.78;;;;;;;29.62;39.08;95277.47;5052160;28;20171;-84
2022/05/26 11:49:43;;;;;;;9.30;2.80;;;;;;;29.64;40.02;95281.47;5051929;28;20167;-84
2022/05/26 11:52:24;;;;;;;12.70;3.78;;;;;;;29.80;38.67;95279.06;5052222;28;20551;-84
2022/05/26 11:54:52;;;;;;;8.95;3.28;;;;;;;29.89;39.72;95285.28;5051951;28;20179;-84
2022/05/26 11:57:33;;;;;;;9.95;3.38;;;;;;;30.02;39.51;95288.94;5051832;28;20234;-84
2022/05/26 12:00:19;;;;;;;5.20;2.75;;;;;;;30.08;39.93;95292.28;5051755;28;20186;-84
2022/05/26 12:02:51;;;;;;;12.68;3.47;;;;;;;30.15;39.35;95296.09;5033965;28;20178;-84
2022/05/26 12:05:28;;;;;;;15.77;3.20;;;;;;;30.21;40.25;95294.00;5033926;28;20260;-84
2022/05/26 12:08:04;;;;;;;6.60;3.33;;;;;;;30.30;40.25;95303.72;5026057;28;20258;-84
2022/05/26 12:10:38;;;;;;;22.85;4.00;;;;;;;30.10;40.57;95257.47;5051378;28;20174;-84
2022/05/26 12:13:19;;;;;;;9.20;3.88;;;;;;;30.30;41.00;95305.66;5051604;28;20253;-84
2022/05/26 12:16:03;;;;;;;12.02;3.92;;;;;;;30.06;41.44;95303.47;5051737;28;20170;-84
2022/05/26 12:18:49;;;;;;;7.80;3.00;;;;;;;29.95;41.00;95302.22;5033824;28;20252;-84
2022/05/26 12:21:34;;;;;;;9.75;3.03;;;;;;;29.73;40.61;95297.75;5033717;28;20187;-84